Time;durP1;ratioP1;P1;durP2;ratioP2;P2;SDS_P1;SDS_P2;PMS_P1;PMS_P2;Temp;Humidity;BMP_temperature;BMP_pressure;BME280_temperature;BME280_humidity;BME280_pressure;Samples;Min_cycle;Max_cycle;Signal;HPM_P1;HPM_P2
2021/11/05 00:01:38;;;;;;;4.68;0.85;;;;;;;25.38;35.41;96425.81;5020664;28;20603;-59
2021/11/05 00:04:04;;;;;;;2.30;0.82;;;;;;;25.38;35.44;96423.19;5021923;28;20036;-60
2021/11/05 00:06:29;;;;;;;1.83;1.05;;;;;;;25.38;35.31;96424.94;5019810;28;20034;-60
2021/11/05 00:08:55;;;;;;;3.85;0.95;;;;;;;25.38;35.38;96431.06;5008430;28;20037;-60
2021/11/05 00:11:20;;;;;;;2.00;0.75;;;;;;;25.38;35.43;96435.44;5027691;28;20029;-58
2021/11/05 00:13:45;;;;;;;1.60;0.77;;;;;;;25.37;35.22;96437.22;5030491;28;20558;-58
2021/11/05 00:16:11;;;;;;;2.00;0.90;;;;;;;25.37;35.23;96439.00;5031230;28;20032;-59
2021/11/05 00:18:36;;;;;;;2.33;0.88;;;;;;;25.37;35.34;96439.00;5033859;28;20033;-60
2021/11/05 00:21:02;;;;;;;2.88;0.90;;;;;;;25.37;35.31;96444.25;5025154;28;20336;-59
2021/11/05 00:23:27;;;;;;;1.30;0.68;;;;;;;25.36;35.24;96432.91;5026331;28;20025;-59
2021/11/05 00:25:52;;;;;;;3.03;0.85;;;;;;;25.36;35.25;96442.56;5026157;28;20434;-59
2021/11/05 00:28:18;;;;;;;2.97;0.90;;;;;;;25.37;35.23;96436.38;5029982;28;20499;-60
2021/11/05 00:30:43;;;;;;;1.52;0.77;;;;;;;25.36;35.29;96442.56;5021854;28;20039;-60
2021/11/05 00:33:09;;;;;;;1.10;0.80;;;;;;;25.36;35.20;96439.94;5025392;28;20087;-59
2021/11/05 00:35:34;;;;;;;2.95;0.90;;;;;;;25.37;35.37;96444.25;5022080;28;20040;-58
2021/11/05 00:38:00;;;;;;;1.83;0.80;;;;;;;25.37;35.43;96444.25;5023620;28;20582;-59
2021/11/05 00:40:28;;;;;;;0.90;0.70;;;;;;;25.36;35.18;96442.56;5020740;28;20029;-57
2021/11/05 00:42:54;;;;;;;1.80;0.75;;;;;;;25.35;35.33;96441.69;5023394;28;20028;-59
2021/11/05 00:45:19;;;;;;;0.98;0.75;;;;;;;25.35;35.31;96444.31;5021612;28;20036;-60
2021/11/05 00:47:44;;;;;;;0.82;0.68;;;;;;;25.36;35.29;96447.81;5026840;28;20028;-58
2021/11/05 00:50:10;;;;;;;0.63;0.60;;;;;;;25.35;35.13;96446.13;5023103;28;20029;-60
2021/11/05 00:52:35;;;;;;;1.00;0.60;;;;;;;25.35;35.18;96454.00;5022593;28;20086;-58
2021/11/05 00:55:01;;;;;;;2.35;1.05;;;;;;;25.35;34.99;96456.63;5024218;28;20060;-59
2021/11/05 00:57:26;;;;;;;1.60;0.70;;;;;;;25.35;35.17;96456.63;5026763;28;20033;-61
2021/11/05 00:59:51;;;;;;;2.47;0.70;;;;;;;25.35;35.35;96461.88;5028329;28;20079;-58
2021/11/05 01:02:17;;;;;;;0.80;0.63;;;;;;;25.35;35.12;96461.88;5023252;28;20518;-58
2021/11/05 01:04:42;;;;;;;2.65;0.52;;;;;;;25.35;35.25;96456.63;5027789;28;20049;-58
2021/11/05 01:07:08;;;;;;;0.95;0.63;;;;;;;25.34;35.08;96465.41;5035069;28;20025;-58
2021/11/05 01:09:33;;;;;;;1.08;0.57;;;;;;;25.36;35.12;96466.16;5023276;28;20052;-60
2021/11/05 01:11:58;;;;;;;0.77;0.57;;;;;;;25.35;35.15;96467.09;5023133;28;20041;-59
2021/11/05 01:14:24;;;;;;;1.23;0.77;;;;;;;25.34;35.03;96463.63;5021655;28;20052;-60
2021/11/05 01:16:49;;;;;;;1.52;0.80;;;;;;;25.35;35.20;96472.34;5023096;28;20037;-58
2021/11/05 01:19:15;;;;;;;2.45;1.00;;;;;;;25.35;35.15;96467.09;5023764;28;20527;-58
2021/11/05 01:21:40;;;;;;;2.25;0.93;;;;;;;25.31;34.89;96467.28;5022368;28;20586;-58
2021/11/05 01:24:06;;;;;;;2.47;0.60;;;;;;;25.35;35.06;96472.34;5024030;28;20483;-60
2021/11/05 01:26:31;;;;;;;1.50;0.60;;;;;;;25.34;35.08;96468.88;5032728;28;20644;-59
2021/11/05 01:28:56;;;;;;;0.43;0.40;;;;;;;25.35;35.15;96474.97;5025993;28;20040;-60
2021/11/05 01:31:23;;;;;;;3.03;0.70;;;;;;;25.34;35.04;96475.88;5024473;28;20021;-59
2021/11/05 01:33:49;;;;;;;1.50;0.70;;;;;;;25.34;35.07;96476.75;5027425;28;20127;-59
2021/11/05 01:36:14;;;;;;;3.22;0.98;;;;;;;25.34;35.15;96478.50;5021687;28;20029;-60
2021/11/05 01:38:40;;;;;;;2.05;0.60;;;;;;;25.34;35.18;96481.13;5021710;28;20172;-59
2021/11/05 01:41:06;;;;;;;1.92;0.98;;;;;;;25.34;35.22;96486.38;5024541;28;20040;-57
2021/11/05 01:43:31;;;;;;;1.23;0.60;;;;;;;25.33;35.21;96485.56;5026353;28;20029;-59
2021/11/05 01:45:57;;;;;;;1.08;0.57;;;;;;;25.33;35.07;96485.56;5029825;28;20029;-60
2021/11/05 01:48:22;;;;;;;0.50;0.43;;;;;;;25.34;34.95;96475.88;5032688;28;20021;-59
2021/11/05 01:50:48;;;;;;;2.15;0.43;;;;;;;25.34;35.03;96486.38;5028497;28;20047;-59
2021/11/05 01:53:13;;;;;;;1.52;0.60;;;;;;;25.34;35.07;96483.75;5020439;28;20033;-59
2021/11/05 01:55:39;;;;;;;1.58;0.70;;;;;;;25.34;34.95;96481.13;5038179;28;20025;-59
2021/11/05 01:58:04;;;;;;;1.23;0.73;;;;;;;25.31;35.08;96477.75;5045895;28;20729;-59
2021/11/05 02:00:30;;;;;;;1.50;0.80;;;;;;;25.33;34.97;96484.69;5025833;28;20415;-58
2021/11/05 02:02:56;;;;;;;0.47;0.40;;;;;;;25.31;34.90;96483.00;5022368;28;20029;-60
2021/11/05 02:05:21;;;;;;;1.42;0.73;;;;;;;25.31;34.99;96488.25;5024239;28;21211;-58
2021/11/05 02:07:51;;;;;;;0.93;0.52;;;;;;;25.31;34.99;96488.25;5024016;28;20032;-57
2021/11/05 02:10:17;;;;;;;1.65;0.70;;;;;;;25.31;34.93;96488.25;5028127;28;20067;-59
2021/11/05 02:12:42;;;;;;;1.60;0.77;;;;;;;25.31;34.96;96488.25;5030272;28;20033;-58
2021/11/05 02:15:08;;;;;;;1.33;0.50;;;;;;;25.27;34.92;96478.88;5028696;28;20033;-59
2021/11/05 02:17:35;;;;;;;0.50;0.40;;;;;;;25.31;35.08;96487.41;5029682;28;20024;-58
2021/11/05 02:20:00;;;;;;;0.73;0.60;;;;;;;25.30;34.82;96491.81;5026155;28;20423;-57
2021/11/05 02:22:26;;;;;;;1.42;0.63;;;;;;;25.31;35.08;96493.50;5025118;28;20029;-56
2021/11/05 02:24:51;;;;;;;0.95;0.70;;;;;;;25.29;35.05;96497.16;5031045;28;20433;-60
2021/11/05 02:27:17;;;;;;;2.08;0.75;;;;;;;25.31;34.91;96497.88;5028037;28;20047;-58
2021/11/05 02:29:43;;;;;;;0.70;0.60;;;;;;;25.30;34.89;96507.56;5027824;28;20091;-59
2021/11/05 02:32:08;;;;;;;1.08;0.65;;;;;;;25.30;34.87;96504.94;5027544;28;20029;-58
2021/11/05 02:34:34;;;;;;;2.25;0.88;;;;;;;25.30;35.02;96498.81;5028718;28;20053;-58
2021/11/05 02:37:02;;;;;;;1.30;0.50;;;;;;;25.30;35.07;96506.69;5025998;28;20839;-60
2021/11/05 02:39:27;;;;;;;0.63;0.52;;;;;;;25.30;34.89;96504.94;5034232;28;20029;-59
2021/11/05 02:41:53;;;;;;;0.52;0.40;;;;;;;25.29;35.07;96500.59;5026452;28;20033;-59
2021/11/05 02:44:19;;;;;;;1.08;0.63;;;;;;;25.30;34.94;96507.56;5043685;28;20652;-59
2021/11/05 02:46:44;;;;;;;1.35;0.77;;;;;;;25.31;35.13;96506.63;5028254;28;20375;-59
2021/11/05 02:49:10;;;;;;;1.98;0.55;;;;;;;25.29;34.90;96510.25;5029102;28;20037;-59
2021/11/05 02:51:36;;;;;;;0.47;0.40;;;;;;;25.30;34.91;96517.19;5028062;28;20033;-59
2021/11/05 02:54:02;;;;;;;1.30;0.65;;;;;;;25.30;34.80;96518.03;5028628;28;20078;-59
2021/11/05 02:56:27;;;;;;;0.57;0.43;;;;;;;25.28;34.96;96519.88;5026818;28;20028;-58
2021/11/05 02:58:53;;;;;;;0.55;0.40;;;;;;;25.29;35.12;96523.38;5041449;28;20021;-60
2021/11/05 03:01:19;;;;;;;0.65;0.43;;;;;;;25.28;35.07;96525.13;5018972;28;20499;-57
2021/11/05 03:03:44;;;;;;;0.77;0.40;;;;;;;25.29;34.95;96531.22;5004801;28;20060;-59
2021/11/05 03:06:09;;;;;;;0.65;0.40;;;;;;;25.28;34.84;96529.56;5033260;28;20094;-58
2021/11/05 03:08:35;;;;;;;1.13;0.70;;;;;;;25.29;34.78;96537.31;5023219;28;20052;-57
2021/11/05 03:11:01;;;;;;;0.80;0.50;;;;;;;25.29;35.04;96537.31;5026125;28;20024;-59
2021/11/05 03:13:26;;;;;;;0.52;0.30;;;;;;;25.28;34.84;96540.88;5023029;28;20032;-59
2021/11/05 03:15:52;;;;;;;1.25;0.70;;;;;;;25.28;34.93;96540.88;5024183;28;20483;-59
2021/11/05 03:18:17;;;;;;;0.63;0.40;;;;;;;25.28;35.07;96540.88;5043640;28;20033;-57
2021/11/05 03:20:43;;;;;;;1.75;0.52;;;;;;;25.28;34.90;96540.88;5028774;28;20130;-58
2021/11/05 03:23:09;;;;;;;1.08;0.40;;;;;;;25.28;34.99;96540.88;5044030;28;20021;-58
2021/11/05 03:25:35;;;;;;;1.30;0.40;;;;;;;25.28;34.90;96546.13;5024541;28;20403;-58
2021/11/05 03:28:01;;;;;;;0.30;0.22;;;;;;;25.28;34.93;96546.13;5024938;28;20024;-61
2021/11/05 03:30:26;;;;;;;0.90;0.50;;;;;;;25.28;34.99;96551.38;5027245;28;20495;-58
2021/11/05 03:32:52;;;;;;;3.10;0.60;;;;;;;25.28;34.89;96551.38;5027945;28;20032;-59
2021/11/05 03:35:17;;;;;;;1.45;0.65;;;;;;;25.28;34.94;96556.59;5025619;28;20029;-60
2021/11/05 03:37:43;;;;;;;0.70;0.38;;;;;;;25.26;34.99;96555.84;5027253;28;20025;-57
2021/11/05 03:40:10;;;;;;;0.65;0.40;;;;;;;25.27;34.92;96568.03;5026257;28;20138;-59
2021/11/05 03:42:35;;;;;;;0.93;0.40;;;;;;;25.27;34.78;96570.66;5024835;28;20021;-58
2021/11/05 03:45:01;;;;;;;1.02;0.50;;;;;;;25.27;34.92;96565.41;5025948;28;20033;-58
2021/11/05 03:47:26;;;;;;;0.60;0.50;;;;;;;25.26;34.92;96574.22;5028324;28;20020;-56
2021/11/05 03:49:51;;;;;;;1.35;0.50;;;;;;;25.26;34.84;96574.22;5026993;28;20025;-59
2021/11/05 03:52:17;;;;;;;0.63;0.35;;;;;;;25.26;34.78;96575.97;5023039;28;20033;-56
2021/11/05 03:54:43;;;;;;;0.85;0.40;;;;;;;25.27;34.89;96581.16;5028011;28;20040;-58
2021/11/05 03:57:09;;;;;;;0.65;0.43;;;;;;;25.26;34.90;96586.47;5038490;28;20055;-58
2021/11/05 03:59:35;;;;;;;0.98;0.40;;;;;;;25.26;34.94;96589.09;5037260;28;20028;-60
2021/11/05 04:02:00;;;;;;;0.47;0.32;;;;;;;25.26;34.98;96594.34;5029629;28;20098;-58
2021/11/05 04:04:25;;;;;;;0.93;0.30;;;;;;;25.26;35.03;96599.59;5038368;28;20532;-59
2021/11/05 04:06:51;;;;;;;0.80;0.40;;;;;;;25.25;34.98;96603.97;5022212;28;20029;-59
2021/11/05 04:09:16;;;;;;;0.57;0.40;;;;;;;25.25;34.80;96601.34;5020390;28;20091;-58
2021/11/05 04:11:42;;;;;;;0.88;0.35;;;;;;;25.25;34.98;96608.38;5009916;28;20091;-60
2021/11/05 04:14:07;;;;;;;0.88;0.40;;;;;;;25.26;34.82;96615.31;5028678;28;20029;-57
2021/11/05 04:16:33;;;;;;;0.40;0.20;;;;;;;25.25;34.73;96619.72;5026401;28;20029;-59
2021/11/05 04:18:59;;;;;;;0.98;0.40;;;;;;;25.24;34.84;96623.25;5026813;28;20484;-58
2021/11/05 04:21:24;;;;;;;5.40;0.68;;;;;;;25.24;34.63;96618.03;5036412;28;20037;-58
2021/11/05 04:23:50;;;;;;;0.77;0.30;;;;;;;25.23;34.62;96618.97;5024065;28;20029;-59
2021/11/05 04:26:15;;;;;;;0.50;0.50;;;;;;;25.23;34.73;96623.34;5024140;28;20514;-59
2021/11/05 04:28:41;;;;;;;0.35;0.20;;;;;;;25.24;34.87;96628.50;5032640;28;20037;-59
2021/11/05 04:31:06;;;;;;;0.40;0.40;;;;;;;25.23;34.74;96626.81;5026255;28;20029;-59
2021/11/05 04:33:32;;;;;;;0.25;0.25;;;;;;;25.23;34.76;96632.06;5027115;28;20029;-60
2021/11/05 04:35:58;;;;;;;2.70;0.50;;;;;;;25.22;34.96;96633.00;5028219;28;20021;-58
2021/11/05 04:38:24;;;;;;;0.60;0.50;;;;;;;25.22;35.05;96635.63;5027886;28;20032;-59
2021/11/05 04:40:49;;;;;;;2.00;0.50;;;;;;;25.23;34.85;96637.31;5027248;28;20478;-60
2021/11/05 04:43:15;;;;;;;0.50;0.40;;;;;;;25.23;34.92;96637.31;5024852;28;20346;-57
2021/11/05 04:45:40;;;;;;;0.30;0.30;;;;;;;25.23;35.03;96637.31;5026101;28;20044;-58
2021/11/05 04:48:05;;;;;;;0.40;0.40;;;;;;;25.22;34.96;96640.88;5028138;28;20484;-58
2021/11/05 04:50:31;;;;;;;0.55;0.43;;;;;;;25.23;34.87;96647.81;5028601;28;20024;-59
2021/11/05 04:52:57;;;;;;;0.52;0.40;;;;;;;25.24;34.97;96646.03;5025530;28;20028;-59
2021/11/05 04:55:22;;;;;;;2.00;0.40;;;;;;;25.22;34.92;96646.13;5027981;28;20029;-59
2021/11/05 04:57:49;;;;;;;0.38;0.30;;;;;;;25.22;34.88;96646.13;5027200;28;20037;-59
2021/11/05 05:00:15;;;;;;;0.30;0.25;;;;;;;25.22;34.80;96647.88;5023134;28;20028;-60
2021/11/05 05:02:40;;;;;;;0.68;0.30;;;;;;;25.22;34.84;96648.75;5027422;28;20067;-57
2021/11/05 05:05:06;;;;;;;0.52;0.30;;;;;;;25.22;34.98;96656.59;5027429;28;20032;-59
2021/11/05 05:07:31;;;;;;;1.23;0.40;;;;;;;25.22;34.86;96659.22;5027689;28;20037;-59
2021/11/05 05:09:57;;;;;;;1.05;0.40;;;;;;;25.22;34.98;96656.59;5027045;28;20111;-56
2021/11/05 05:12:22;;;;;;;0.45;0.25;;;;;;;25.23;34.83;96657.44;5032341;28;20399;-60
2021/11/05 05:14:47;;;;;;;0.25;0.20;;;;;;;25.24;34.95;96667.03;5040889;28;20033;-58
2021/11/05 05:17:13;;;;;;;1.00;0.40;;;;;;;25.23;34.90;96668.78;5027757;28;20086;-59
2021/11/05 05:19:39;;;;;;;1.00;0.30;;;;;;;25.21;34.83;96659.31;5028948;28;20017;-58
2021/11/05 05:22:04;;;;;;;1.67;0.40;;;;;;;25.21;34.76;96675.91;5027259;28;20048;-57
2021/11/05 05:24:30;;;;;;;0.75;0.43;;;;;;;25.23;34.82;96667.94;5030894;28;20028;-58
2021/11/05 05:26:55;;;;;;;0.45;0.30;;;;;;;25.22;34.99;96677.59;5024024;28;20025;-58
2021/11/05 05:29:22;;;;;;;0.57;0.40;;;;;;;25.23;34.90;96683.66;5027255;28;20644;-58
2021/11/05 05:31:47;;;;;;;1.08;0.30;;;;;;;25.22;34.87;96676.72;5024953;28;20033;-60
2021/11/05 05:34:13;;;;;;;0.75;0.35;;;;;;;25.22;34.86;96681.97;5029405;28;20282;-61
2021/11/05 05:36:38;;;;;;;1.13;0.40;;;;;;;25.22;34.96;96688.06;5030974;28;20542;-59
2021/11/05 05:39:04;;;;;;;0.63;0.55;;;;;;;25.22;34.92;96687.22;5025559;28;20028;-58
2021/11/05 05:41:29;;;;;;;1.27;0.40;;;;;;;25.21;35.03;96691.63;5028917;28;20452;-56
2021/11/05 05:43:55;;;;;;;2.20;0.40;;;;;;;25.22;34.82;96695.94;5031943;28;20067;-59
2021/11/05 05:46:20;;;;;;;0.77;0.40;;;;;;;25.22;34.93;96698.56;5027636;28;20044;-57
2021/11/05 05:48:45;;;;;;;0.40;0.30;;;;;;;25.22;34.92;96695.94;5033236;28;20443;-58
2021/11/05 05:51:11;;;;;;;1.02;0.40;;;;;;;25.23;34.98;96704.63;5028466;28;20021;-59
2021/11/05 05:53:36;;;;;;;0.35;0.20;;;;;;;25.23;34.88;96700.25;5025338;28;20491;-59
2021/11/05 05:56:02;;;;;;;1.02;0.30;;;;;;;25.24;35.04;96712.44;5031987;28;20335;-58
2021/11/05 05:58:27;;;;;;;0.63;0.30;;;;;;;25.22;34.85;96716.94;5027154;28;20676;-58
2021/11/05 06:00:53;;;;;;;0.80;0.30;;;;;;;25.23;35.09;96715.13;5019408;28;20032;-56
2021/11/05 06:03:18;;;;;;;2.30;0.22;;;;;;;25.23;34.83;96721.22;5022210;28;20032;-58
2021/11/05 06:05:43;;;;;;;1.83;0.70;;;;;;;25.23;34.95;96721.22;5021267;28;20047;-60
2021/11/05 06:08:09;;;;;;;0.28;0.20;;;;;;;25.23;34.96;96723.84;5023744;28;20082;-58
2021/11/05 06:10:34;;;;;;;0.75;0.30;;;;;;;25.24;35.06;96736.03;5024094;28;20097;-60
2021/11/05 06:13:00;;;;;;;0.85;0.30;;;;;;;25.23;35.05;96736.97;5029294;28;20182;-57
2021/11/05 06:15:25;;;;;;;0.30;0.15;;;;;;;25.24;35.07;96735.22;5045267;28;20040;-57
2021/11/05 06:17:51;;;;;;;2.47;0.40;;;;;;;25.25;34.91;96740.34;5044995;28;20400;-59
2021/11/05 06:20:16;;;;;;;0.55;0.40;;;;;;;25.24;34.86;96751.78;5030215;28;20095;-59
2021/11/05 06:22:41;;;;;;;1.17;0.50;;;;;;;25.25;34.92;96745.59;5029861;28;20028;-57
2021/11/05 06:25:07;;;;;;;0.30;0.30;;;;;;;25.24;34.95;96754.41;5027100;28;20064;-57
2021/11/05 06:27:32;;;;;;;0.38;0.38;;;;;;;25.26;34.90;96759.56;5040420;28;20040;-59
2021/11/05 06:29:58;;;;;;;0.30;0.30;;;;;;;25.25;34.95;96761.34;5028536;28;20038;-58
2021/11/05 06:32:23;;;;;;;0.77;0.22;;;;;;;25.27;35.04;96764.75;5029826;28;20076;-58
2021/11/05 06:34:49;;;;;;;1.10;0.40;;;;;;;25.26;34.83;96763.03;5024734;28;20029;-61
2021/11/05 06:37:14;;;;;;;2.05;0.20;;;;;;;25.26;34.81;96772.69;5041265;28;20369;-57
2021/11/05 06:39:40;;;;;;;10.65;1.10;;;;;;;25.26;34.45;96778.78;5024935;28;20032;-58
2021/11/05 06:42:06;;;;;;;5.53;0.93;;;;;;;25.24;33.67;96778.00;5026913;28;20028;-61
2021/11/05 06:44:31;;;;;;;5.90;0.90;;;;;;;25.21;33.46;96778.19;5028337;28;20148;-59
2021/11/05 06:46:58;;;;;;;8.27;1.55;;;;;;;25.18;33.91;96787.03;5024984;28;20029;-57
2021/11/05 06:49:24;;;;;;;16.23;1.65;;;;;;;25.18;34.36;96799.31;5026892;28;20040;-58
2021/11/05 06:51:53;;;;;;;9.77;1.70;;;;;;;25.17;34.38;96802.84;5040125;28;20025;-58
2021/11/05 06:54:19;;;;;;;7.03;1.45;;;;;;;25.17;34.42;96805.47;5041889;28;20111;-58
2021/11/05 06:56:44;;;;;;;5.57;1.10;;;;;;;25.17;34.66;96816.81;5027779;28;20465;-57
2021/11/05 06:59:10;;;;;;;4.35;1.13;;;;;;;25.18;34.54;96821.13;5026538;28;20037;-57
2021/11/05 07:01:36;;;;;;;3.60;1.20;;;;;;;25.19;34.76;96824.59;5025113;28;21874;-60
2021/11/05 07:04:01;;;;;;;6.18;1.25;;;;;;;25.20;34.89;96831.53;5022675;28;20083;-60
2021/11/05 07:06:26;;;;;;;4.38;1.20;;;;;;;25.21;34.74;96838.50;5029339;28;20056;-58
2021/11/05 07:08:52;;;;;;;5.28;1.73;;;;;;;25.22;34.87;96844.56;5016618;28;20068;-57
2021/11/05 07:11:17;;;;;;;3.72;1.40;;;;;;;25.23;34.83;96847.13;5024228;28;20395;-58
2021/11/05 07:13:43;;;;;;;4.97;1.15;;;;;;;25.24;34.96;96854.06;5027311;28;20031;-57
2021/11/05 07:16:09;;;;;;;4.63;1.30;;;;;;;25.24;34.93;96861.94;5026531;28;20039;-59
2021/11/05 07:18:36;;;;;;;4.25;1.35;;;;;;;25.25;34.85;96868.88;5023975;28;20388;-60
2021/11/05 07:21:03;;;;;;;8.95;1.58;;;;;;;25.26;34.86;96867.09;5024646;28;20028;-59
2021/11/05 07:23:29;;;;;;;5.68;1.58;;;;;;;25.26;34.88;96872.34;5022843;28;20086;-58
2021/11/05 07:25:55;;;;;;;5.70;1.20;;;;;;;25.27;35.05;96880.16;5023775;28;20036;-59
2021/11/05 07:28:20;;;;;;;3.83;1.20;;;;;;;25.28;34.80;96881.84;5024546;28;20029;-58
2021/11/05 07:30:45;;;;;;;2.97;1.40;;;;;;;25.28;34.71;96884.47;5039414;28;20020;-57
2021/11/05 07:33:11;;;;;;;6.60;2.10;;;;;;;25.29;34.91;96888.78;5026217;28;20475;-59
2021/11/05 07:35:36;;;;;;;5.28;2.20;;;;;;;25.29;34.99;96899.25;5022376;28;20025;-57
2021/11/05 07:38:02;;;;;;;8.70;2.70;;;;;;;25.30;35.04;96897.50;5023198;28;20036;-58
2021/11/05 07:40:28;;;;;;;7.38;2.40;;;;;;;25.31;34.96;96907.91;5024204;28;20083;-60
2021/11/05 07:42:53;;;;;;;8.35;2.50;;;;;;;25.31;34.93;96913.16;5024147;28;20033;-59
2021/11/05 07:45:19;;;;;;;7.53;3.00;;;;;;;25.31;35.01;96918.41;5022015;28;20507;-60
2021/11/05 07:47:45;;;;;;;7.82;3.17;;;;;;;25.33;35.05;96920.97;5024794;28;20029;-56
2021/11/05 07:50:11;;;;;;;6.07;2.75;;;;;;;25.34;35.23;96933.16;5022599;28;20056;-58
2021/11/05 07:52:37;;;;;;;8.43;2.92;;;;;;;25.35;35.12;96934.00;5028671;28;20128;-59
2021/11/05 07:55:04;;;;;;;6.63;2.45;;;;;;;25.35;34.99;96931.38;5022689;28;20040;-59
2021/11/05 07:57:29;;;;;;;11.90;2.80;;;;;;;25.36;35.25;96944.41;5044569;28;20031;-58
2021/11/05 07:59:56;;;;;;;9.60;2.90;;;;;;;25.36;35.30;96951.44;5023666;28;20029;-58
2021/11/05 08:02:21;;;;;;;7.25;2.63;;;;;;;25.36;35.25;96948.81;5023110;28;20065;-60
2021/11/05 08:04:47;;;;;;;7.75;2.53;;;;;;;25.36;35.18;96949.66;5024044;28;20075;-58
2021/11/05 08:07:12;;;;;;;9.38;2.67;;;;;;;25.38;35.22;96954.81;5028543;28;20290;-57
2021/11/05 08:09:38;;;;;;;5.55;2.30;;;;;;;25.39;35.28;96967.00;5027201;28;21628;-59
2021/11/05 08:12:03;;;;;;;7.60;2.53;;;;;;;25.39;35.38;96961.75;5026615;28;20565;-59
2021/11/05 08:14:28;;;;;;;6.93;2.90;;;;;;;25.39;35.30;96961.75;5025953;28;20477;-58
2021/11/05 08:16:54;;;;;;;9.02;2.92;;;;;;;25.40;35.27;96968.72;5039972;28;20047;-58
2021/11/05 08:19:19;;;;;;;7.32;2.78;;;;;;;25.40;35.22;96980.06;5026141;28;20024;-58
2021/11/05 08:21:45;;;;;;;7.70;2.67;;;;;;;25.41;35.48;96980.91;5022804;28;20025;-62
2021/11/05 08:24:10;;;;;;;6.40;2.60;;;;;;;25.41;35.30;96983.53;5022640;28;20388;-59
2021/11/05 08:26:37;;;;;;;6.53;2.42;;;;;;;25.42;35.32;96985.22;5026157;28;20473;-59
2021/11/05 08:29:03;;;;;;;8.38;2.53;;;;;;;25.42;35.39;96988.72;5020684;28;20075;-58
2021/11/05 08:31:28;;;;;;;6.85;2.47;;;;;;;25.42;35.29;96988.72;5037887;28;20063;-59
2021/11/05 08:33:54;;;;;;;5.72;1.90;;;;;;;25.42;35.43;96993.97;5021044;28;20029;-60
2021/11/05 08:36:22;;;;;;;9.77;2.30;;;;;;;25.43;35.48;97002.66;5021922;28;20029;-58
2021/11/05 08:38:47;;;;;;;8.10;2.38;;;;;;;25.43;35.49;96995.66;5013602;28;20017;-59
2021/11/05 08:41:16;;;;;;;28.17;4.40;;;;;;;25.42;35.18;96999.22;5024467;28;20063;-59
2021/11/05 08:43:42;;;;;;;46.50;9.35;;;;;;;25.44;35.36;97014.88;5020490;28;20119;-59
2021/11/05 08:46:07;;;;;;;45.83;9.10;;;;;;;25.42;35.38;97004.47;5024113;28;20621;-59
2021/11/05 08:48:33;;;;;;;34.67;4.85;;;;;;;25.42;34.90;97011.47;5024166;28;20032;-57
2021/11/05 08:51:07;;;;;;;36.50;7.80;;;;;;;25.40;34.98;97016.78;5018238;28;20036;-59
2021/11/05 08:53:32;;;;;;;45.55;6.47;;;;;;;25.41;35.33;97020.28;5019646;28;20029;-59
2021/11/05 08:55:58;;;;;;;27.02;6.22;;;;;;;25.40;35.18;97027.28;5023372;28;20577;-58
2021/11/05 08:58:23;;;;;;;22.73;5.95;;;;;;;25.39;35.17;97029.97;5023470;28;20104;-60
2021/11/05 09:00:49;;;;;;;24.55;5.97;;;;;;;25.40;35.40;97036.94;5021282;28;20428;-60
2021/11/05 09:03:14;;;;;;;28.95;5.80;;;;;;;25.39;35.35;97035.22;5023511;28;20134;-59
2021/11/05 09:05:40;;;;;;;21.00;5.28;;;;;;;25.40;35.33;97042.19;5039224;28;20072;-60
2021/11/05 09:08:05;;;;;;;17.67;5.43;;;;;;;25.40;35.41;97042.19;5049177;28;20577;-58
2021/11/05 09:10:31;;;;;;;20.00;5.47;;;;;;;25.40;35.43;97047.44;5031663;28;20017;-59
2021/11/05 09:12:56;;;;;;;16.80;5.30;;;;;;;25.41;35.48;97050.00;5045964;28;20565;-57
2021/11/05 09:15:23;;;;;;;26.42;5.32;;;;;;;25.41;35.64;97043.88;5031099;28;20032;-59
2021/11/05 09:17:49;;;;;;;18.27;5.75;;;;;;;25.41;35.57;97050.00;5047001;28;20065;-60
2021/11/05 09:20:15;;;;;;;21.40;5.03;;;;;;;25.44;35.57;97049.00;5046945;28;20578;-61
2021/11/05 09:22:41;;;;;;;31.88;4.95;;;;;;;25.43;35.62;97057.75;5032550;28;20553;-57
2021/11/05 09:25:06;;;;;;;18.27;4.70;;;;;;;25.46;35.50;97062.88;5033045;28;20025;-59
2021/11/05 09:27:32;;;;;;;16.67;4.60;;;;;;;25.47;35.49;97055.88;5028956;28;20621;-60
2021/11/05 09:29:58;;;;;;;23.45;5.38;;;;;;;25.47;35.68;97064.56;5034133;28;20033;-59
2021/11/05 09:32:24;;;;;;;18.63;4.60;;;;;;;25.48;35.65;97063.66;5028748;28;20036;-59
2021/11/05 09:34:50;;;;;;;13.52;4.32;;;;;;;25.47;35.54;97069.81;5032071;28;20697;-59
2021/11/05 09:37:16;;;;;;;13.57;4.65;;;;;;;25.49;35.60;97067.97;5031355;28;20384;-59
2021/11/05 09:39:42;;;;;;;10.02;4.38;;;;;;;25.51;35.54;97075.78;5033132;28;20040;-60
2021/11/05 09:42:07;;;;;;;16.70;4.25;;;;;;;25.51;35.64;97075.78;5031266;28;20021;-58
2021/11/05 09:44:33;;;;;;;11.75;3.85;;;;;;;25.52;35.68;97083.56;5031899;28;20025;-59
2021/11/05 09:47:02;;;;;;;12.57;4.53;;;;;;;25.52;35.50;97088.81;5029952;28;20210;-59
2021/11/05 09:49:27;;;;;;;17.52;4.47;;;;;;;25.51;35.52;97076.63;5031764;28;20036;-59
2021/11/05 09:51:55;;;;;;;12.45;4.10;;;;;;;25.54;35.56;97086.97;5028396;28;20034;-57
2021/11/05 09:54:21;;;;;;;12.27;3.97;;;;;;;25.54;35.50;97092.22;5031225;28;20029;-57
2021/11/05 09:56:47;;;;;;;11.43;3.90;;;;;;;25.55;35.54;97088.66;5019103;28;20514;-59
2021/11/05 09:59:13;;;;;;;10.07;3.20;;;;;;;25.55;35.59;97093.09;5035008;28;20028;-58
2021/11/05 10:01:41;;;;;;;13.30;4.18;;;;;;;25.56;35.54;97100.91;5028835;28;20683;-59
2021/11/05 10:04:07;;;;;;;13.90;3.28;;;;;;;25.55;35.74;97104.41;5027709;28;20025;-61
2021/11/05 10:06:33;;;;;;;11.50;3.42;;;;;;;25.57;35.61;97107.88;5029067;28;20029;-57
2021/11/05 10:08:58;;;;;;;16.30;3.40;;;;;;;25.57;35.57;97112.25;5028477;28;20032;-60
2021/11/05 10:11:31;;;;;;;16.15;3.55;;;;;;;25.58;35.64;97119.19;5029518;28;20385;-58
2021/11/05 10:13:58;;;;;;;9.60;3.20;;;;;;;25.58;35.62;97113.94;5031713;28;20029;-58
2021/11/05 10:16:25;;;;;;;8.63;3.50;;;;;;;25.59;35.70;97120.06;5043486;28;20483;-58
2021/11/05 10:18:59;;;;;;;14.60;3.20;;;;;;;25.60;35.55;97120.00;5034160;28;20033;-61
2021/11/05 10:21:25;;;;;;;13.63;3.58;;;;;;;25.60;35.66;97127.00;5046578;28;21229;-59
2021/11/05 10:23:50;;;;;;;18.25;3.83;;;;;;;25.60;35.14;97119.13;5033073;28;20029;-59
2021/11/05 10:26:28;;;;;;;11.57;3.30;;;;;;;25.58;35.14;97124.44;5048065;28;20036;-59
2021/11/05 10:28:53;;;;;;;16.25;3.10;;;;;;;25.59;35.27;97125.31;5033096;28;20068;-60
2021/11/05 10:31:19;;;;;;;7.82;3.00;;;;;;;25.61;35.16;97123.44;5028108;28;20107;-59
2021/11/05 10:33:47;;;;;;;10.13;3.13;;;;;;;25.61;35.22;97124.31;5033575;28;20044;-59
2021/11/05 10:36:14;;;;;;;9.82;3.00;;;;;;;25.61;35.27;97118.19;5031847;28;20025;-60
2021/11/05 10:38:48;;;;;;;13.93;2.90;;;;;;;25.62;35.34;97128.63;5029782;28;20036;-57
2021/11/05 10:41:19;;;;;;;7.07;3.28;;;;;;;25.62;35.42;97130.44;5028329;28;20076;-59
2021/11/05 10:43:52;;;;;;;10.77;3.15;;;;;;;25.61;35.37;97118.19;5042102;28;20032;-57
2021/11/05 10:46:35;;;;;;;10.77;3.10;;;;;;;25.62;35.42;97123.38;5010609;28;20045;-59
2021/11/05 10:49:20;;;;;;;13.43;3.15;;;;;;;25.61;35.23;97128.69;5027957;28;20041;-60
2021/11/05 10:51:45;;;;;;;9.73;2.95;;;;;;;25.62;35.37;97131.25;5036632;28;20033;-58
2021/11/05 10:54:11;;;;;;;19.27;3.35;;;;;;;25.62;35.37;97131.25;5029568;28;20411;-60
2021/11/05 10:56:37;;;;;;;10.02;2.90;;;;;;;25.63;35.40;97137.38;5026529;28;20052;-59
2021/11/05 10:59:12;;;;;;;7.05;2.42;;;;;;;25.63;35.25;97137.38;5025829;28;20025;-59
2021/11/05 11:01:42;;;;;;;9.55;2.88;;;;;;;25.64;35.52;97139.06;5023060;28;20029;-62
2021/11/05 11:04:09;;;;;;;10.65;3.00;;;;;;;25.63;35.37;97140.00;5039325;28;20107;-59
2021/11/05 11:06:38;;;;;;;6.78;2.58;;;;;;;25.65;35.42;97138.13;5025268;28;20056;-59
2021/11/05 11:09:17;;;;;;;7.97;2.50;;;;;;;25.67;35.49;97144.19;5025291;28;20111;-59
2021/11/05 11:11:46;;;;;;;7.50;2.80;;;;;;;25.67;35.39;97149.44;5032001;28;20043;-61
2021/11/05 11:14:20;;;;;;;6.45;2.33;;;;;;;25.67;35.34;97154.69;5030216;28;20030;-60
2021/11/05 11:16:49;;;;;;;8.35;3.03;;;;;;;25.69;35.56;97152.81;5033709;28;20033;-59
2021/11/05 11:19:19;;;;;;;5.65;2.30;;;;;;;25.68;35.39;97151.13;5031053;28;20020;-60
2021/11/05 11:21:44;;;;;;;5.07;2.10;;;;;;;25.69;35.59;97161.56;5023261;28;20377;-58
2021/11/05 11:24:11;;;;;;;6.18;2.15;;;;;;;25.68;35.42;97154.59;5031232;28;20037;-59
2021/11/05 11:26:37;;;;;;;16.10;2.47;;;;;;;25.70;35.52;97149.25;5056759;28;20032;-58